Time;durP1;ratioP1;P1;durP2;ratioP2;P2;SDS_P1;SDS_P2;PMS_P1;PMS_P2;Temp;Humidity;BMP_temperature;BMP_pressure;BME280_temperature;BME280_humidity;BME280_pressure;Samples;Min_cycle;Max_cycle;Signal;HPM_P1;HPM_P2
2022/11/15 00:00:25;;;;;;;10.17;6.73;;;5.50;99.90;;;;;;4224303;28;20285;-68
2022/11/15 00:02:26;;;;;;;11.20;6.67;;;5.40;99.90;;;;;;4228872;28;20427;-69
2022/11/15 00:04:27;;;;;;;11.67;7.00;;;5.40;99.90;;;;;;4228881;28;20419;-69
2022/11/15 00:06:27;;;;;;;9.27;6.80;;;5.40;99.90;;;;;;4228838;28;20416;-68
2022/11/15 00:08:32;;;;;;;12.10;7.67;;;5.40;99.90;;;;;;4229240;28;20231;-69
2022/11/15 00:10:33;;;;;;;13.10;7.53;;;5.50;99.90;;;;;;4228225;28;20688;-68
2022/11/15 00:12:34;;;;;;;12.00;7.20;;;5.50;99.90;;;;;;4228880;28;20455;-69
2022/11/15 00:14:34;;;;;;;9.30;6.37;;;5.50;99.90;;;;;;4229011;28;20231;-69
2022/11/15 00:16:35;;;;;;;9.60;6.30;;;5.50;99.90;;;;;;4228880;28;20680;-69
2022/11/15 00:18:35;;;;;;;11.30;6.13;;;5.50;99.90;;;;;;4228919;28;20233;-68
2022/11/15 00:20:36;;;;;;;9.70;6.30;;;5.50;99.90;;;;;;4228535;28;20197;-68
2022/11/15 00:22:37;;;;;;;11.77;6.57;;;5.50;99.90;;;;;;4227680;28;20178;-68
2022/11/15 00:24:38;;;;;;;11.83;6.90;;;5.50;99.90;;;;;;4228815;28;20183;-68
2022/11/15 00:26:39;;;;;;;12.40;7.30;;;5.50;99.90;;;;;;4228578;28;20473;-69
2022/11/15 00:28:40;;;;;;;9.40;6.90;;;5.40;99.90;;;;;;4228699;28;20182;-69
2022/11/15 00:30:41;;;;;;;10.73;6.30;;;5.50;99.90;;;;;;4228319;28;20205;-68
2022/11/15 00:32:42;;;;;;;8.50;5.87;;;5.50;99.90;;;;;;4228756;28;20416;-68
2022/11/15 00:34:42;;;;;;;9.13;5.73;;;5.40;99.90;;;;;;4228904;28;20265;-69
2022/11/15 00:36:43;;;;;;;12.00;7.17;;;5.50;99.90;;;;;;4228715;28;20179;-68
2022/11/15 00:38:44;;;;;;;9.10;6.40;;;5.50;99.90;;;;;;4228846;28;20206;-69
2022/11/15 00:40:45;;;;;;;10.10;6.33;;;5.60;99.90;;;;;;4228165;28;20190;-69
2022/11/15 00:42:45;;;;;;;9.23;5.73;;;5.50;99.90;;;;;;4228638;28;20672;-68
2022/11/15 00:44:46;;;;;;;9.50;5.97;;;5.50;99.90;;;;;;4235599;28;20204;-68
2022/11/15 00:46:47;;;;;;;8.63;6.00;;;5.60;99.90;;;;;;4238116;28;20653;-68
2022/11/15 00:48:47;;;;;;;11.30;6.63;;;5.60;99.90;;;;;;4229644;28;20552;-69
2022/11/15 00:50:49;;;;;;;8.00;5.97;;;5.60;99.90;;;;;;4228615;28;20271;-68
2022/11/15 00:52:50;;;;;;;10.27;6.40;;;5.60;99.90;;;;;;4227949;28;20592;-68
2022/11/15 00:54:50;;;;;;;11.47;6.90;;;5.60;99.90;;;;;;4227607;28;20424;-69
2022/11/15 00:56:51;;;;;;;9.80;6.20;;;5.50;99.90;;;;;;4228822;28;20182;-68
2022/11/15 00:58:53;;;;;;;15.33;6.67;;;5.40;99.90;;;;;;4228907;28;20206;-68
2022/11/15 01:00:54;;;;;;;9.77;6.23;;;5.40;99.90;;;;;;4230401;28;20194;-68
2022/11/15 01:02:55;;;;;;;9.00;6.37;;;5.50;99.90;;;;;;4232233;28;20440;-68
2022/11/15 01:04:55;;;;;;;9.77;6.20;;;5.40;99.90;;;;;;4232091;28;20480;-69
2022/11/15 01:06:56;;;;;;;10.27;7.13;;;5.30;99.90;;;;;;4232053;28;20660;-69
2022/11/15 01:08:57;;;;;;;9.73;6.40;;;5.30;99.90;;;;;;4231937;28;20186;-68
2022/11/15 01:11:08;;;;;;;12.80;6.80;;;5.20;99.90;;;;;;4231027;28;20263;-67
2022/11/15 01:13:08;;;;;;;10.63;6.13;;;5.20;99.90;;;;;;4232005;28;20208;-67
2022/11/15 01:15:09;;;;;;;10.87;6.30;;;5.10;99.90;;;;;;4231955;28;20422;-67
2022/11/15 01:17:10;;;;;;;9.90;6.13;;;5.00;99.90;;;;;;4231560;28;20625;-68
2022/11/15 01:19:11;;;;;;;10.23;6.13;;;5.00;99.90;;;;;;4230252;28;20205;-67
2022/11/15 01:21:19;;;;;;;9.00;5.90;;;5.00;99.90;;;;;;4230775;28;20217;-68
2022/11/15 01:23:20;;;;;;;9.33;6.67;;;5.00;99.90;;;;;;4231081;28;20503;-68
2022/11/15 01:25:20;;;;;;;9.23;6.17;;;5.10;99.90;;;;;;4231410;28;20423;-68
2022/11/15 01:27:21;;;;;;;10.13;6.53;;;5.00;99.90;;;;;;4231271;28;20299;-68
2022/11/15 01:29:22;;;;;;;9.53;6.10;;;5.10;99.90;;;;;;4231400;28;20174;-68
2022/11/15 01:31:23;;;;;;;11.17;6.23;;;5.20;99.90;;;;;;4230800;28;20293;-67
2022/11/15 01:33:23;;;;;;;7.40;5.43;;;5.20;99.90;;;;;;4231359;28;20178;-67
2022/11/15 01:35:24;;;;;;;7.60;5.77;;;5.30;99.90;;;;;;4231387;28;20185;-67
2022/11/15 01:37:24;;;;;;;10.70;5.97;;;5.40;99.90;;;;;;4231212;28;20577;-68
2022/11/15 01:39:26;;;;;;;8.13;6.07;;;5.50;99.90;;;;;;4231262;28;20180;-68
2022/11/15 01:41:31;;;;;;;7.33;5.40;;;5.50;99.90;;;;;;4230719;28;20190;-67
2022/11/15 01:43:36;;;;;;;8.30;5.60;;;5.50;99.90;;;;;;4230071;28;20444;-68
2022/11/15 01:45:37;;;;;;;8.57;5.40;;;5.60;99.90;;;;;;4231362;28;20467;-68
2022/11/15 01:47:49;;;;;;;7.03;4.97;;;5.50;99.90;;;;;;4231178;28;20915;-69
2022/11/15 01:50:04;;;;;;;7.93;5.13;;;5.50;99.90;;;;;;4231095;28;20194;-67
2022/11/15 01:52:11;;;;;;;8.30;5.63;;;5.40;99.90;;;;;;4229193;28;20423;-69
2022/11/15 01:54:17;;;;;;;5.67;4.10;;;5.50;99.90;;;;;;4229556;28;20409;-69
2022/11/15 01:56:23;;;;;;;5.37;3.83;;;5.40;99.90;;;;;;4221207;28;20537;-69
2022/11/15 01:58:24;;;;;;;5.20;3.57;;;5.40;99.90;;;;;;4212341;28;20517;-68
2022/11/15 02:00:25;;;;;;;9.10;4.37;;;5.40;99.90;;;;;;4212180;28;20437;-68
2022/11/15 02:02:25;;;;;;;6.40;4.23;;;5.50;99.90;;;;;;4212512;28;20810;-69
2022/11/15 02:04:30;;;;;;;6.47;3.53;;;5.70;99.90;;;;;;4213569;28;20175;-69
2022/11/15 02:06:31;;;;;;;5.00;4.40;;;5.80;99.90;;;;;;4212603;28;20266;-69
2022/11/15 02:08:32;;;;;;;6.40;4.10;;;5.90;99.90;;;;;;4228849;28;20504;-69
2022/11/15 02:10:32;;;;;;;6.80;4.00;;;6.00;99.90;;;;;;4230030;28;20436;-69
2022/11/15 02:12:33;;;;;;;7.47;4.40;;;6.10;99.90;;;;;;4229997;28;20746;-69
2022/11/15 02:14:36;;;;;;;6.30;4.47;;;6.10;99.90;;;;;;4230624;27;20257;-69
2022/11/15 02:17:08;;;;;;;6.77;4.13;;;6.10;99.90;;;;;;4230737;28;20190;-69
2022/11/15 02:19:40;;;;;;;6.40;3.43;;;6.10;99.90;;;;;;4229215;28;20459;-68
2022/11/15 02:22:04;;;;;;;7.23;3.93;;;5.90;99.90;;;;;;4228869;28;20407;-69
2022/11/15 02:24:29;;;;;;;4.77;3.60;;;5.70;99.90;;;;;;4230371;28;20784;-67
2022/11/15 02:27:12;;;;;;;6.70;3.70;;;5.80;99.90;;;;;;4230221;28;20408;-67
2022/11/15 02:29:40;;;;;;;5.13;3.40;;;5.90;99.90;;;;;;4230163;28;20412;-67
2022/11/15 02:31:48;;;;;;;10.03;5.67;;;6.10;99.90;;;;;;4229787;28;20420;-67
2022/11/15 02:34:25;;;;;;;5.60;3.93;;;6.50;99.90;;;;;;4230184;28;20499;-68
2022/11/15 02:36:54;;;;;;;7.43;3.77;;;6.70;99.90;;;;;;4230351;28;20404;-68
2022/11/15 02:39:08;;;;;;;5.27;3.40;;;6.90;99.90;;;;;;4230090;28;20448;-68
2022/11/15 02:41:31;;;;;;;6.03;3.20;;;7.10;99.90;;;;;;4229468;28;20439;-68
2022/11/15 02:43:57;;;;;;;3.77;2.90;;;7.20;99.90;;;;;;4229009;28;20382;-68
2022/11/15 02:46:18;;;;;;;4.37;3.07;;;7.30;99.90;;;;;;4232211;28;20428;-68
2022/11/15 02:48:21;;;;;;;6.77;3.47;;;7.30;99.90;;;;;;4241534;28;20482;-68
2022/11/15 02:50:27;;;;;;;4.67;2.93;;;7.40;99.90;;;;;;4232580;28;20503;-68
2022/11/15 02:52:28;;;;;;;4.87;2.73;;;7.30;99.90;;;;;;4229410;28;20436;-68
2022/11/15 02:54:33;;;;;;;4.27;2.83;;;7.40;99.90;;;;;;4229047;28;20419;-68
2022/11/15 02:56:34;;;;;;;3.90;3.33;;;7.50;99.90;;;;;;4230381;28;20178;-68
2022/11/15 02:58:46;;;;;;;4.47;2.83;;;7.30;99.90;;;;;;4230244;28;20965;-68
2022/11/15 03:01:22;;;;;;;4.87;2.33;;;7.20;99.90;;;;;;4229822;28;20197;-68
2022/11/15 03:03:53;;;;;;;5.27;3.70;;;7.10;99.90;;;;;;4225288;28;20432;-68
2022/11/15 03:06:04;;;;;;;11.07;4.00;;;6.70;99.90;;;;;;4230196;28;20413;-68
2022/11/15 03:08:29;;;;;;;4.60;3.23;;;6.60;99.90;;;;;;4230213;28;20427;-68
2022/11/15 03:10:42;;;;;;;12.33;4.03;;;6.60;99.90;;;;;;4228340;28;20608;-68
2022/11/15 03:12:57;;;;;;;5.33;3.70;;;6.60;99.90;;;;;;4229788;28;20443;-68
2022/11/15 03:15:06;;;;;;;6.70;3.67;;;6.50;99.90;;;;;;4229932;28;20404;-68
2022/11/15 03:17:26;;;;;;;5.97;3.90;;;6.50;99.90;;;;;;4229780;28;20495;-68
2022/11/15 03:19:48;;;;;;;6.17;3.80;;;6.40;99.90;;;;;;4229890;28;20484;-68
2022/11/15 03:21:51;;;;;;;4.17;3.57;;;6.30;99.90;;;;;;4228123;28;20432;-68
2022/11/15 03:23:54;;;;;;;3.87;3.00;;;6.20;99.90;;;;;;4227306;28;20431;-68
2022/11/15 03:25:56;;;;;;;4.90;3.40;;;6.20;99.90;;;;;;4221506;28;22226;-68
2022/11/15 03:28:01;;;;;;;4.70;3.70;;;6.10;99.90;;;;;;4227924;28;20439;-68
2022/11/15 03:30:07;;;;;;;5.13;3.93;;;6.20;99.90;;;;;;4228529;28;20435;-68
2022/11/15 03:32:25;;;;;;;7.57;4.67;;;6.20;99.90;;;;;;4229035;28;20974;-68
2022/11/15 03:34:30;;;;;;;6.90;4.27;;;6.20;99.90;;;;;;4228384;28;20835;-68
2022/11/15 03:36:33;;;;;;;5.77;3.70;;;6.20;99.90;;;;;;4228349;28;21002;-68
2022/11/15 03:38:35;;;;;;;4.40;3.20;;;6.20;99.90;;;;;;4228266;28;20998;-68
2022/11/15 03:40:40;;;;;;;6.37;4.00;;;6.30;99.90;;;;;;4227164;28;20436;-68
2022/11/15 03:43:00;;;;;;;6.47;3.60;;;6.40;99.90;;;;;;4226587;28;20492;-68
2022/11/15 03:45:14;;;;;;;4.17;3.40;;;6.50;99.90;;;;;;4229292;28;20426;-68
2022/11/15 03:47:37;;;;;;;5.17;2.93;;;6.60;99.90;;;;;;4229271;28;20934;-68
2022/11/15 03:49:44;;;;;;;4.03;2.97;;;6.60;99.90;;;;;;4244814;27;20425;-68
2022/11/15 03:51:45;;;;;;;4.53;2.80;;;6.70;99.90;;;;;;4244266;27;20893;-68
2022/11/15 03:53:46;;;;;;;4.07;2.63;;;6.70;99.90;;;;;;4227978;28;20428;-68
2022/11/15 03:55:47;;;;;;;9.20;3.57;;;6.70;99.90;;;;;;4227928;28;20186;-68
2022/11/15 03:57:54;;;;;;;3.83;2.67;;;6.60;99.90;;;;;;4227442;28;20198;-68
2022/11/15 03:59:54;;;;;;;4.37;2.90;;;6.60;99.90;;;;;;4212623;28;20199;-68
2022/11/15 04:01:55;;;;;;;4.37;2.93;;;6.60;99.90;;;;;;4227811;28;20949;-68
2022/11/15 04:03:56;;;;;;;4.30;2.47;;;6.80;99.90;;;;;;4229365;28;20224;-68
2022/11/15 04:05:56;;;;;;;3.77;2.40;;;6.90;99.90;;;;;;4229581;28;20235;-68
2022/11/15 04:07:57;;;;;;;3.00;1.80;;;7.00;99.90;;;;;;4229132;28;20189;-68
2022/11/15 04:10:05;;;;;;;1.97;1.57;;;7.20;99.90;;;;;;4229272;28;20231;-68
2022/11/15 04:12:05;;;;;;;1.70;1.30;;;7.40;99.90;;;;;;4227520;28;20168;-69
2022/11/15 04:14:06;;;;;;;3.43;1.70;;;7.70;99.90;;;;;;4227992;28;20822;-68
2022/11/15 04:16:07;;;;;;;2.30;1.70;;;7.90;99.90;;;;;;4229190;28;20183;-69
2022/11/15 04:18:07;;;;;;;2.37;1.80;;;8.10;99.90;;;;;;4229244;28;20265;-70
2022/11/15 04:25:03;;;;;;;3.10;2.60;;;7.80;99.90;;;;;;4228910;28;20247;-68
2022/11/15 04:27:04;;;;;;;4.00;2.87;;;7.60;99.90;;;;;;4227666;28;20744;-68
2022/11/15 04:31:24;;;;;;;2.77;2.17;;;7.60;99.90;;;;;;4228620;28;20213;-68
2022/11/15 04:33:25;;;;;;;2.73;2.43;;;7.60;99.90;;;;;;4228983;28;20903;-67
2022/11/15 04:35:26;;;;;;;3.03;2.33;;;7.70;99.90;;;;;;4231559;28;20176;-68
2022/11/15 04:37:26;;;;;;;2.07;1.63;;;7.90;99.90;;;;;;4230897;28;20454;-68
2022/11/15 04:39:27;;;;;;;1.80;1.57;;;8.10;99.90;;;;;;4231128;28;20181;-67
2022/11/15 04:41:28;;;;;;;3.87;1.73;;;8.20;99.90;;;;;;4231834;28;20232;-68
2022/11/15 04:43:29;;;;;;;1.67;1.30;;;8.30;99.90;;;;;;4232242;28;20186;-68
2022/11/15 04:45:30;;;;;;;1.73;1.40;;;8.30;99.90;;;;;;4232196;28;20637;-68
2022/11/15 04:47:31;;;;;;;1.83;1.40;;;8.60;99.90;;;;;;4232004;28;20181;-68
2022/11/15 04:49:32;;;;;;;1.73;1.40;;;8.60;99.90;;;;;;4240312;28;20179;-68
2022/11/15 04:51:32;;;;;;;2.40;1.50;;;8.80;99.90;;;;;;4239491;28;20187;-68
2022/11/15 04:53:33;;;;;;;1.33;1.23;;;8.80;99.90;;;;;;4231415;28;20272;-68
2022/11/15 04:55:34;;;;;;;1.90;1.47;;;8.90;99.90;;;;;;4232524;28;20234;-68
2022/11/15 04:57:34;;;;;;;1.63;1.47;;;8.80;99.90;;;;;;4232221;28;20173;-68
2022/11/15 04:59:35;;;;;;;1.60;1.50;;;8.80;99.90;;;;;;4230950;28;20656;-68
2022/11/15 05:01:36;;;;;;;2.17;1.97;;;8.70;99.90;;;;;;4232158;28;20215;-68
2022/11/15 05:05:57;;;;;;;2.67;1.70;;;8.40;99.90;;;;;;4232252;28;20219;-68
2022/11/15 05:07:58;;;;;;;2.10;1.50;;;8.20;99.90;;;;;;4232146;28;20185;-68
2022/11/15 05:09:59;;;;;;;3.27;1.93;;;8.00;99.90;;;;;;4232221;28;20258;-68
2022/11/15 05:11:59;;;;;;;1.90;1.70;;;7.80;99.90;;;;;;4231205;28;20185;-67
2022/11/15 05:14:00;;;;;;;4.07;2.07;;;7.70;99.90;;;;;;4230847;28;20184;-68
2022/11/15 05:16:01;;;;;;;2.83;2.03;;;7.70;99.90;;;;;;4230852;28;20314;-68
2022/11/15 05:18:01;;;;;;;2.73;2.00;;;7.70;99.90;;;;;;4231867;28;20205;-68
2022/11/15 05:20:02;;;;;;;3.90;2.20;;;7.60;99.90;;;;;;4230621;28;20723;-68
2022/11/15 05:22:03;;;;;;;3.00;2.13;;;7.60;99.90;;;;;;4231475;28;20254;-68
2022/11/15 05:24:05;;;;;;;4.57;2.60;;;7.70;99.90;;;;;;4231538;28;20218;-68
2022/11/15 05:26:09;;;;;;;2.53;1.93;;;7.80;99.90;;;;;;4231488;28;20177;-69
2022/11/15 05:28:09;;;;;;;2.70;2.30;;;7.80;99.90;;;;;;4231543;28;20182;-69
2022/11/15 05:30:10;;;;;;;2.63;1.80;;;7.80;99.90;;;;;;4231260;28;20206;-69
2022/11/15 05:32:12;;;;;;;4.53;1.90;;;7.90;99.90;;;;;;4230226;28;20180;-67
2022/11/15 05:34:13;;;;;;;3.03;1.60;;;7.90;99.90;;;;;;4231381;28;20793;-67
2022/11/15 05:36:42;;;;;;;2.83;1.70;;;7.90;99.90;;;;;;4231498;28;20186;-67
2022/11/15 05:38:42;;;;;;;2.20;1.40;;;8.00;99.90;;;;;;4230271;28;20257;-67
2022/11/15 05:40:43;;;;;;;4.60;2.20;;;8.10;99.90;;;;;;4230991;28;20216;-67
2022/11/15 05:42:45;;;;;;;2.60;2.40;;;8.10;99.90;;;;;;4233418;27;20194;-68
2022/11/15 05:44:49;;;;;;;3.30;2.07;;;8.10;99.90;;;;;;4213007;28;20182;-68
2022/11/15 05:46:53;;;;;;;4.37;1.60;;;8.10;99.90;;;;;;4228666;28;20180;-68
2022/11/15 05:48:55;;;;;;;2.33;1.93;;;8.10;99.90;;;;;;4231481;28;20257;-68
2022/11/15 05:50:56;;;;;;;3.20;2.33;;;8.00;99.90;;;;;;4230766;28;20249;-68
2022/11/15 05:52:57;;;;;;;3.27;2.73;;;7.90;99.90;;;;;;4230737;28;20191;-67
2022/11/15 05:54:59;;;;;;;5.00;2.60;;;7.90;99.90;;;;;;4229878;28;20174;-69
2022/11/15 05:57:00;;;;;;;4.67;2.70;;;8.00;99.90;;;;;;4231322;28;20182;-67
2022/11/15 05:59:01;;;;;;;3.87;2.60;;;8.00;99.90;;;;;;4230001;28;20297;-68
2022/11/15 06:01:01;;;;;;;2.73;2.10;;;7.80;99.90;;;;;;4228801;28;20190;-68
2022/11/15 06:03:02;;;;;;;4.33;1.83;;;7.80;99.90;;;;;;4231080;28;20225;-69
2022/11/15 06:05:03;;;;;;;2.80;1.90;;;7.90;99.90;;;;;;4230875;28;20198;-67
2022/11/15 06:07:04;;;;;;;2.10;1.90;;;8.00;99.90;;;;;;4230948;28;20169;-68
2022/11/15 06:09:05;;;;;;;1.90;1.30;;;8.10;99.90;;;;;;4230918;28;20670;-67
2022/11/15 06:11:06;;;;;;;2.00;1.43;;;8.20;99.90;;;;;;4245711;27;20234;-68
2022/11/15 06:13:07;;;;;;;1.20;1.10;;;8.20;99.90;;;;;;4231057;28;20178;-67
2022/11/15 06:15:08;;;;;;;2.40;1.30;;;8.20;99.90;;;;;;4230520;28;20188;-68
2022/11/15 06:17:09;;;;;;;2.30;1.40;;;8.40;99.90;;;;;;4230398;28;20178;-68
2022/11/15 06:19:10;;;;;;;2.10;1.73;;;8.40;99.90;;;;;;4230218;28;20282;-67
2022/11/15 06:21:10;;;;;;;2.97;2.10;;;8.30;99.90;;;;;;4229606;28;20205;-67
2022/11/15 06:23:11;;;;;;;2.53;1.90;;;8.20;99.90;;;;;;4230381;28;20190;-67
2022/11/15 06:25:12;;;;;;;2.80;1.93;;;8.20;99.90;;;;;;4230504;28;20169;-67
2022/11/15 06:27:12;;;;;;;2.83;1.77;;;8.20;99.90;;;;;;4230021;28;20268;-68
2022/11/15 06:29:13;;;;;;;1.70;1.60;;;8.40;99.90;;;;;;4230109;28;20175;-67
2022/11/15 06:31:14;;;;;;;1.93;1.80;;;8.40;99.90;;;;;;4245247;27;20249;-68
2022/11/15 06:33:14;;;;;;;2.57;1.60;;;8.40;99.90;;;;;;4229982;28;20186;-68
2022/11/15 06:35:16;;;;;;;2.83;2.17;;;8.40;99.90;;;;;;4230068;28;20612;-68
2022/11/15 06:37:16;;;;;;;2.53;1.80;;;8.40;99.90;;;;;;4230025;28;20186;-69
2022/11/15 06:39:17;;;;;;;3.30;2.50;;;8.30;99.90;;;;;;4229867;28;20206;-67
2022/11/15 06:41:18;;;;;;;3.37;2.20;;;8.40;99.90;;;;;;4229381;28;20633;-68
2022/11/15 06:43:18;;;;;;;3.47;2.30;;;8.40;99.90;;;;;;4229736;28;20174;-67
2022/11/15 06:45:19;;;;;;;5.07;2.50;;;8.40;99.90;;;;;;4229903;28;20191;-68
2022/11/15 06:47:20;;;;;;;3.23;2.10;;;8.40;99.90;;;;;;4229902;28;20217;-67
2022/11/15 06:49:20;;;;;;;3.57;2.30;;;8.30;99.90;;;;;;4245627;27;20193;-67
2022/11/15 06:51:21;;;;;;;5.30;2.60;;;8.30;99.90;;;;;;4239042;28;20201;-68
2022/11/15 06:53:22;;;;;;;3.20;2.20;;;8.30;99.90;;;;;;4246850;28;20182;-67
2022/11/15 06:55:23;;;;;;;4.97;2.57;;;8.30;99.90;;;;;;4230614;28;20654;-68
2022/11/15 06:57:24;;;;;;;3.47;2.60;;;8.20;99.90;;;;;;4229773;28;20213;-67
2022/11/15 06:59:24;;;;;;;4.73;2.97;;;8.20;99.90;;;;;;4230124;28;20217;-68
2022/11/15 07:01:25;;;;;;;4.50;2.83;;;8.10;99.90;;;;;;4229209;28;20201;-68
2022/11/15 07:03:26;;;;;;;6.57;3.57;;;8.10;99.90;;;;;;4229991;28;20712;-68
2022/11/15 07:05:27;;;;;;;6.60;3.87;;;8.20;99.90;;;;;;4245528;27;20294;-68
2022/11/15 07:07:28;;;;;;;5.77;4.40;;;8.00;99.90;;;;;;4229724;28;20179;-67
2022/11/15 07:09:29;;;;;;;6.97;4.73;;;7.90;99.90;;;;;;4229758;28;20555;-69
2022/11/15 07:11:29;;;;;;;6.17;4.03;;;7.80;99.90;;;;;;4228935;28;20198;-68
2022/11/15 07:13:35;;;;;;;6.00;4.23;;;7.70;99.90;;;;;;4229906;28;20171;-68
2022/11/15 07:15:36;;;;;;;6.17;4.13;;;7.60;99.90;;;;;;4229836;28;20158;-67
2022/11/15 07:17:37;;;;;;;7.73;4.17;;;7.60;99.90;;;;;;4229427;28;20192;-68
2022/11/15 07:19:37;;;;;;;6.13;4.13;;;7.70;99.90;;;;;;4229446;28;20219;-68
2022/11/15 07:21:38;;;;;;;5.90;3.97;;;7.80;99.90;;;;;;4228702;28;20196;-68
2022/11/15 07:23:39;;;;;;;6.30;4.00;;;7.90;99.90;;;;;;4229147;28;20197;-68
2022/11/15 07:25:40;;;;;;;4.97;3.63;;;8.00;99.90;;;;;;4229163;28;20181;-68
2022/11/15 07:27:41;;;;;;;6.10;4.03;;;8.10;99.90;;;;;;4229282;28;20261;-68
2022/11/15 07:29:41;;;;;;;6.80;4.83;;;8.20;99.90;;;;;;4229191;28;20940;-68
2022/11/15 07:31:42;;;;;;;6.40;3.60;;;8.40;99.90;;;;;;4228531;28;20180;-68
2022/11/15 07:33:43;;;;;;;7.53;4.00;;;8.40;99.90;;;;;;4228977;28;20186;-68
2022/11/15 07:35:46;;;;;;;5.83;4.17;;;8.50;99.90;;;;;;4229071;28;20186;-68
2022/11/15 07:37:58;;;;;;;6.27;4.00;;;8.60;99.90;;;;;;4228950;28;20587;-67
2022/11/15 07:39:58;;;;;;;5.70;3.87;;;8.50;99.90;;;;;;4229243;28;20196;-67
2022/11/15 07:44:18;;;;;;;6.93;3.70;;;8.60;99.90;;;;;;4229525;28;20180;-68
2022/11/15 07:46:19;;;;;;;5.40;3.70;;;8.70;99.90;;;;;;4229044;28;20272;-68
2022/11/15 07:48:20;;;;;;;5.03;3.67;;;8.80;99.90;;;;;;4228978;28;20182;-68
2022/11/15 07:50:21;;;;;;;6.20;4.07;;;8.80;99.90;;;;;;4228304;28;20201;-68
2022/11/15 07:52:21;;;;;;;7.40;4.27;;;8.80;99.90;;;;;;4244939;27;20178;-67
2022/11/15 07:54:22;;;;;;;7.00;4.50;;;8.90;99.90;;;;;;4229547;28;20247;-68
2022/11/15 07:56:23;;;;;;;7.43;4.40;;;9.10;99.90;;;;;;4244243;27;20184;-68
2022/11/15 07:58:23;;;;;;;7.60;4.10;;;9.20;99.90;;;;;;4212828;28;20240;-68
2022/11/15 08:00:24;;;;;;;6.43;4.10;;;9.30;99.90;;;;;;4220472;28;20206;-67
2022/11/15 08:02:24;;;;;;;8.70;4.67;;;9.30;99.90;;;;;;4228883;28;20174;-68
2022/11/15 08:04:25;;;;;;;8.50;4.73;;;9.50;99.90;;;;;;4228952;28;20248;-68
2022/11/15 08:06:26;;;;;;;7.90;4.53;;;9.60;99.90;;;;;;4229033;28;20204;-68
2022/11/15 08:08:27;;;;;;;6.73;4.70;;;9.70;99.90;;;;;;4228629;28;20185;-68
2022/11/15 08:10:28;;;;;;;7.90;5.37;;;9.70;99.90;;;;;;4230722;28;20201;-68
2022/11/15 08:12:29;;;;;;;6.63;4.93;;;9.60;99.90;;;;;;4232160;28;20201;-67
2022/11/15 08:14:29;;;;;;;7.67;4.93;;;9.40;99.90;;;;;;4232263;28;20181;-68
2022/11/15 08:16:30;;;;;;;5.97;4.83;;;9.30;99.90;;;;;;4232163;28;20656;-67
2022/11/15 08:18:31;;;;;;;7.07;4.47;;;9.40;99.90;;;;;;4232015;28;20294;-68
2022/11/15 08:20:33;;;;;;;6.63;4.97;;;9.60;99.90;;;;;;4231444;28;20194;-68
2022/11/15 08:22:34;;;;;;;5.30;4.20;;;9.80;99.90;;;;;;4232068;28;20182;-67
2022/11/15 08:24:35;;;;;;;6.83;4.20;;;9.90;99.90;;;;;;4232022;28;20208;-68
2022/11/15 08:26:35;;;;;;;6.53;4.17;;;10.10;99.90;;;;;;4230882;28;20865;-67
2022/11/15 08:28:36;;;;;;;6.73;4.70;;;10.20;99.90;;;;;;4231804;28;20231;-68
2022/11/15 08:30:41;;;;;;;7.90;4.30;;;10.40;99.90;;;;;;4231066;28;20201;-68
2022/11/15 08:32:42;;;;;;;13.67;8.90;;;10.60;99.60;;;;;;4232366;28;20403;-68
2022/11/15 08:34:43;;;;;;;11.30;7.60;;;10.50;99.40;;;;;;4232025;28;20178;-67
2022/11/15 08:36:43;;;;;;;14.00;8.80;;;10.20;99.90;;;;;;4231768;28;20185;-68
2022/11/15 08:38:44;;;;;;;10.87;6.20;;;10.30;99.90;;;;;;4231772;28;20210;-68
2022/11/15 08:40:45;;;;;;;7.57;5.87;;;10.50;99.80;;;;;;4237902;27;20202;-68
2022/11/15 08:42:47;;;;;;;9.90;6.90;;;10.60;99.60;;;;;;4248805;27;20174;-67
2022/11/15 08:44:47;;;;;;;10.00;6.83;;;10.80;99.50;;;;;;4248839;27;20170;-68
2022/11/15 08:46:48;;;;;;;8.73;6.20;;;10.80;98.50;;;;;;4248606;27;20180;-68
2022/11/15 08:48:49;;;;;;;10.17;6.30;;;10.80;98.50;;;;;;4248882;27;20184;-68
2022/11/15 08:50:55;;;;;;;9.77;6.40;;;10.90;98.10;;;;;;4248101;27;20288;-68
2022/11/15 08:52:55;;;;;;;9.20;5.93;;;10.90;97.90;;;;;;4255440;27;20165;-68
2022/11/15 08:54:56;;;;;;;6.63;4.90;;;11.00;98.10;;;;;;4265212;27;20263;-68
2022/11/15 08:56:57;;;;;;;7.77;5.50;;;11.00;97.70;;;;;;4250181;27;20193;-67
2022/11/15 08:58:58;;;;;;;6.57;4.60;;;11.00;98.30;;;;;;4248987;27;20743;-67
2022/11/15 09:00:58;;;;;;;6.30;4.80;;;11.00;97.90;;;;;;4231074;27;20206;-67
2022/11/15 09:02:59;;;;;;;8.60;5.33;;;11.00;98.10;;;;;;4233871;27;20178;-68
2022/11/15 09:05:00;;;;;;;10.00;6.47;;;11.10;98.00;;;;;;4244201;27;20212;-68
2022/11/15 09:07:00;;;;;;;9.00;5.43;;;11.10;98.00;;;;;;4235088;27;20575;-68
2022/11/15 09:09:02;;;;;;;9.93;6.30;;;11.30;97.60;;;;;;4243818;27;20223;-68
2022/11/15 09:11:05;;;;;;;8.87;7.03;;;11.50;96.70;;;;;;4216720;28;20202;-68
2022/11/15 09:13:06;;;;;;;7.53;5.90;;;11.50;96.80;;;;;;4243337;27;20190;-68
2022/11/15 09:15:08;;;;;;;7.93;5.83;;;11.70;96.30;;;;;;4234995;27;20205;-68
2022/11/15 09:17:08;;;;;;;6.23;5.07;;;12.00;96.00;;;;;;4242770;27;20182;-68
2022/11/15 09:19:09;;;;;;;6.47;4.43;;;12.20;94.90;;;;;;4234805;27;20244;-67
2022/11/15 09:21:10;;;;;;;7.27;3.97;;;12.40;94.40;;;;;;4241544;27;20263;-67
2022/11/15 09:23:11;;;;;;;7.23;3.77;;;12.60;93.70;;;;;;4236366;27;20260;-67
2022/11/15 09:25:12;;;;;;;4.97;3.77;;;12.70;93.40;;;;;;4242032;27;20624;-67
2022/11/15 09:27:13;;;;;;;6.97;3.80;;;12.90;93.00;;;;;;4211854;28;20179;-68
2022/11/15 09:29:14;;;;;;;7.47;4.30;;;12.90;93.60;;;;;;4230083;28;20238;-69
2022/11/15 09:31:15;;;;;;;6.20;4.60;;;12.80;92.80;;;;;;4230561;28;20202;-69
2022/11/15 09:33:17;;;;;;;6.63;4.93;;;12.80;93.10;;;;;;4230936;28;20229;-69
2022/11/15 09:35:18;;;;;;;7.50;4.80;;;12.50;93.80;;;;;;4230973;28;20771;-68
2022/11/15 09:37:18;;;;;;;7.97;5.27;;;12.50;93.90;;;;;;4229965;28;20186;-68
2022/11/15 09:39:19;;;;;;;5.97;4.43;;;12.50;94.40;;;;;;4230506;28;20210;-67
2022/11/15 09:41:52;;;;;;;8.23;4.97;;;12.60;94.40;;;;;;4230123;28;20196;-67
2022/11/15 09:44:25;;;;;;;7.77;4.87;;;12.80;94.00;;;;;;4230917;28;20170;-67
2022/11/15 09:46:41;;;;;;;6.97;4.83;;;12.70;94.00;;;;;;4229675;28;20178;-67
2022/11/15 09:48:53;;;;;;;8.63;6.43;;;12.80;95.20;;;;;;4230925;28;20176;-68
2022/11/15 09:51:00;;;;;;;9.03;6.63;;;12.40;96.10;;;;;;4230801;28;20214;-67
2022/11/15 09:53:01;;;;;;;8.13;5.20;;;12.40;95.80;;;;;;4231127;28;20288;-67
2022/11/15 09:55:02;;;;;;;5.27;4.53;;;12.50;95.30;;;;;;4230818;28;20174;-68
2022/11/15 09:57:13;;;;;;;5.83;3.93;;;12.70;95.10;;;;;;4230641;28;20186;-68
2022/11/15 10:00:07;;;;;;;7.83;4.97;;;13.00;94.60;;;;;;4230685;28;20681;-67
2022/11/15 10:02:07;;;;;;;5.50;2.73;;;13.00;91.90;;;;;;4203785;28;20295;-67
2022/11/15 10:04:08;;;;;;;3.73;2.77;;;12.60;93.10;;;;;;4228868;28;20182;-67
2022/11/15 10:06:23;;;;;;;4.23;2.87;;;12.60;92.20;;;;;;4230601;28;20216;-67
2022/11/15 10:08:57;;;;;;;2.77;2.10;;;12.40;94.10;;;;;;4217572;28;20237;-67
2022/11/15 10:11:06;;;;;;;2.50;1.87;;;12.30;93.80;;;;;;4213495;28;20205;-68
2022/11/15 10:13:20;;;;;;;1.70;1.00;;;12.40;94.00;;;;;;4213538;28;20194;-68
2022/11/15 10:15:24;;;;;;;2.10;1.90;;;12.60;91.60;;;;;;4212094;28;20641;-68
2022/11/15 10:17:41;;;;;;;2.97;1.93;;;12.70;92.20;;;;;;4213518;28;20205;-68
2022/11/15 10:20:06;;;;;;;1.27;0.90;;;12.90;91.60;;;;;;4213359;28;20228;-67
2022/11/15 10:22:28;;;;;;;1.30;1.10;;;12.80;87.90;;;;;;4212892;28;20665;-67
2022/11/15 10:24:37;;;;;;;2.27;1.40;;;12.90;90.20;;;;;;4213378;28;20182;-67
2022/11/15 10:26:38;;;;;;;2.03;1.37;;;12.90;90.30;;;;;;4213372;28;20171;-67
2022/11/15 10:28:39;;;;;;;1.40;1.30;;;13.00;88.70;;;;;;4212145;28;20187;-67
2022/11/15 10:30:43;;;;;;;4.20;1.63;;;13.00;84.50;;;;;;4212846;28;20696;-67
2022/11/15 10:32:46;;;;;;;1.90;1.10;;;12.90;85.40;;;;;;4212762;28;20183;-67
2022/11/15 10:34:49;;;;;;;2.20;1.17;;;13.00;86.00;;;;;;4212068;28;20220;-67
2022/11/15 10:37:00;;;;;;;1.23;0.90;;;13.00;85.20;;;;;;4213190;28;20533;-67
2022/11/15 10:39:00;;;;;;;3.00;1.30;;;13.10;83.50;;;;;;4213096;28;20209;-67
2022/11/15 10:41:07;;;;;;;1.97;1.20;;;13.00;84.80;;;;;;4212473;28;20199;-67
2022/11/15 10:43:19;;;;;;;2.97;1.30;;;12.80;85.40;;;;;;4213172;28;20167;-67
2022/11/15 10:45:29;;;;;;;1.63;1.10;;;12.90;86.30;;;;;;4213265;28;20671;-67
2022/11/15 10:47:32;;;;;;;1.10;0.80;;;13.00;82.90;;;;;;4212991;28;20212;-67
2022/11/15 10:49:34;;;;;;;1.00;0.60;;;13.00;83.50;;;;;;4211555;28;20174;-67
2022/11/15 10:51:52;;;;;;;0.73;0.70;;;12.90;82.30;;;;;;4212822;28;20183;-67
2022/11/15 10:53:54;;;;;;;4.67;2.23;;;12.80;83.10;;;;;;4215218;28;20711;-67
2022/11/15 10:56:02;;;;;;;3.30;3.10;;;12.60;84.80;;;;;;4222956;28;20171;-67
2022/11/15 10:58:39;;;;;;;0.97;0.80;;;12.70;81.80;;;;;;4215436;28;20565;-67
2022/11/15 11:00:39;;;;;;;2.00;1.10;;;12.80;84.90;;;;;;4212252;28;20222;-67
2022/11/15 11:03:34;;;;;;;1.07;0.80;;;13.00;83.50;;;;;;4213342;28;20182;-67
2022/11/15 11:05:40;;;;;;;1.80;0.80;;;13.30;81.70;;;;;;4211668;28;20207;-67